Time;durP1;ratioP1;P1;durP2;ratioP2;P2;SDS_P1;SDS_P2;PMS_P1;PMS_P2;Temp;Humidity;BMP_temperature;BMP_pressure;BME280_temperature;BME280_humidity;BME280_pressure;Samples;Min_cycle;Max_cycle;Signal;HPM_P1;HPM_P2
2021/11/26 00:02:14;;;;;;;15.20;6.13;;;5.80;90.30;;;;;;5052229;28;20044;-83
2021/11/26 00:04:40;;;;;;;14.90;6.20;;;5.80;90.30;;;;;;5047886;28;20041;-84
2021/11/26 00:07:06;;;;;;;17.90;5.80;;;5.80;90.40;;;;;;5049143;28;20048;-84
2021/11/26 00:09:31;;;;;;;18.80;7.03;;;5.80;90.40;;;;;;5049176;28;20044;-85
2021/11/26 00:11:57;;;;;;;20.10;6.82;;;5.70;90.40;;;;;;5049978;28;20041;-84
2021/11/26 00:14:29;;;;;;;26.05;6.85;;;5.80;90.50;;;;;;5046401;28;20041;-84
2021/11/26 00:16:58;;;;;;;21.17;6.72;;;5.70;90.50;;;;;;5048424;28;20421;-84
2021/11/26 00:19:27;;;;;;;20.40;6.40;;;5.70;90.50;;;;;;5047158;28;20027;-83
2021/11/26 00:21:55;;;;;;;21.50;6.72;;;5.70;90.60;;;;;;5048978;28;20542;-83
2021/11/26 00:24:22;;;;;;;20.88;5.60;;;5.70;90.60;;;;;;5048726;28;20169;-82
2021/11/26 00:26:49;;;;;;;18.88;5.63;;;5.70;90.60;;;;;;5043327;28;20041;-84
2021/11/26 00:29:15;;;;;;;16.83;5.25;;;5.70;90.50;;;;;;5053877;28;20036;-83
2021/11/26 00:31:41;;;;;;;16.75;6.07;;;5.70;90.30;;;;;;5048295;28;20041;-84
2021/11/26 00:34:08;;;;;;;14.50;5.10;;;5.70;90.20;;;;;;5045971;28;20112;-84
2021/11/26 00:36:34;;;;;;;17.15;6.10;;;5.70;90.10;;;;;;5051302;28;20029;-84
2021/11/26 00:39:00;;;;;;;14.65;5.57;;;5.70;90.00;;;;;;5047552;28;20029;-83
2021/11/26 00:41:26;;;;;;;15.38;5.07;;;5.70;90.00;;;;;;5045502;28;20037;-83
2021/11/26 00:43:52;;;;;;;19.42;6.40;;;5.70;90.00;;;;;;5045207;28;20049;-84
2021/11/26 00:46:18;;;;;;;17.98;4.88;;;5.70;89.90;;;;;;5049818;28;20443;-84
2021/11/26 00:48:44;;;;;;;16.88;5.40;;;5.70;89.90;;;;;;5044863;28;20429;-83
2021/11/26 00:51:10;;;;;;;17.40;5.20;;;5.70;89.90;;;;;;5046296;28;20067;-84
2021/11/26 00:53:37;;;;;;;15.32;4.82;;;5.70;89.90;;;;;;5050084;28;20507;-85
2021/11/26 00:56:03;;;;;;;15.73;4.78;;;5.70;89.90;;;;;;5044868;28;20025;-85
2021/11/26 00:58:28;;;;;;;11.80;3.95;;;5.70;89.80;;;;;;5044610;28;20037;-83
2021/11/26 01:00:54;;;;;;;16.10;5.00;;;5.80;89.80;;;;;;5045945;28;20124;-84
2021/11/26 01:03:21;;;;;;;16.92;5.40;;;5.70;89.80;;;;;;5048156;28;20029;-84
2021/11/26 01:05:48;;;;;;;17.75;5.05;;;5.70;89.90;;;;;;5046742;28;20087;-85
2021/11/26 01:08:13;;;;;;;16.00;5.90;;;5.70;89.90;;;;;;5047644;28;20033;-85
2021/11/26 01:10:40;;;;;;;20.35;5.28;;;5.80;89.90;;;;;;5051109;28;20045;-84
2021/11/26 01:13:06;;;;;;;16.90;5.43;;;5.80;89.80;;;;;;5047296;28;20387;-84
2021/11/26 01:15:34;;;;;;;23.52;6.25;;;5.80;89.70;;;;;;5049623;28;20036;-84
2021/11/26 01:17:59;;;;;;;17.27;5.57;;;5.80;89.70;;;;;;5048714;28;20480;-83
2021/11/26 01:20:28;;;;;;;21.63;7.22;;;5.80;89.70;;;;;;5051492;28;20052;-83
2021/11/26 01:22:54;;;;;;;15.98;6.50;;;5.70;89.70;;;;;;5051327;28;20544;-84
2021/11/26 01:25:20;;;;;;;18.52;7.05;;;5.70;89.80;;;;;;5048015;28;20480;-84
2021/11/26 01:27:46;;;;;;;19.80;6.97;;;5.70;89.80;;;;;;5047668;28;20271;-84
2021/11/26 01:30:38;;;;;;;18.48;6.50;;;5.80;89.90;;;;;;5054228;28;20113;-84
2021/11/26 01:33:05;;;;;;;15.35;6.43;;;5.70;89.80;;;;;;5046600;28;20033;-85
2021/11/26 01:35:31;;;;;;;17.35;5.97;;;5.70;89.90;;;;;;5065719;28;20016;-84
2021/11/26 01:37:58;;;;;;;19.15;6.63;;;5.70;89.90;;;;;;5071886;28;20051;-84
2021/11/26 01:40:24;;;;;;;18.30;5.85;;;5.70;89.90;;;;;;5071899;28;20036;-85
2021/11/26 01:42:53;;;;;;;18.33;5.15;;;5.70;90.00;;;;;;5056818;28;20107;-84
2021/11/26 01:45:19;;;;;;;19.20;5.30;;;5.70;89.90;;;;;;5056918;28;20123;-85
2021/11/26 01:47:46;;;;;;;25.30;5.38;;;5.70;89.90;;;;;;5052551;28;20037;-85
2021/11/26 01:50:13;;;;;;;17.77;5.00;;;5.70;89.90;;;;;;5048566;28;20543;-84
2021/11/26 01:52:39;;;;;;;16.73;4.95;;;5.70;89.90;;;;;;5053354;28;20038;-83
2021/11/26 01:55:08;;;;;;;19.15;4.97;;;5.60;89.90;;;;;;5059015;28;20116;-86
2021/11/26 01:57:33;;;;;;;15.50;5.45;;;5.60;89.80;;;;;;5054498;28;20063;-85
2021/11/26 01:59:59;;;;;;;18.23;5.20;;;5.60;89.70;;;;;;5050150;28;20037;-84
2021/11/26 02:02:25;;;;;;;17.38;5.50;;;5.60;89.80;;;;;;5049290;28;20183;-85
2021/11/26 02:04:51;;;;;;;16.40;5.38;;;5.60;89.80;;;;;;5053692;28;20095;-85
2021/11/26 02:07:16;;;;;;;16.85;5.07;;;5.60;89.80;;;;;;5055012;28;20471;-84
2021/11/26 02:09:43;;;;;;;19.67;5.75;;;5.60;89.60;;;;;;5049931;28;20113;-84
2021/11/26 02:12:10;;;;;;;16.63;5.20;;;5.60;89.60;;;;;;5046944;28;20403;-84
2021/11/26 02:14:36;;;;;;;20.70;4.93;;;5.60;89.50;;;;;;5052144;28;20068;-84
2021/11/26 02:17:02;;;;;;;18.95;5.32;;;5.60;89.50;;;;;;5049407;28;20029;-83
2021/11/26 02:19:28;;;;;;;16.55;5.40;;;5.50;89.50;;;;;;5050180;28;20036;-85
2021/11/26 02:21:55;;;;;;;15.60;4.68;;;5.50;89.50;;;;;;5056464;28;20045;-85
2021/11/26 02:24:22;;;;;;;18.40;5.25;;;5.50;89.50;;;;;;5048942;28;20060;-83
2021/11/26 02:26:49;;;;;;;17.80;5.65;;;5.50;89.40;;;;;;5045324;28;20032;-85
2021/11/26 02:29:16;;;;;;;18.25;5.20;;;5.40;89.30;;;;;;5046199;28;20037;-85
2021/11/26 02:31:43;;;;;;;20.63;5.47;;;5.40;89.30;;;;;;5049963;28;20030;-84
2021/11/26 02:34:09;;;;;;;16.15;5.75;;;5.40;89.40;;;;;;5048326;28;20040;-85
2021/11/26 02:36:36;;;;;;;15.05;4.82;;;5.40;89.30;;;;;;5051995;28;20427;-85
2021/11/26 02:39:08;;;;;;;25.88;6.00;;;5.30;89.30;;;;;;5047520;28;20032;-87
2021/11/26 02:41:34;;;;;;;17.17;5.55;;;5.30;89.40;;;;;;5050951;28;20480;-84
2021/11/26 02:44:00;;;;;;;22.00;6.43;;;5.30;89.40;;;;;;5047693;28;20107;-84
2021/11/26 02:46:26;;;;;;;17.42;6.65;;;5.30;89.40;;;;;;5049416;28;20033;-85
2021/11/26 02:48:51;;;;;;;20.98;7.18;;;5.30;89.40;;;;;;5050795;28;20092;-85
2021/11/26 02:51:17;;;;;;;20.88;7.72;;;5.30;89.50;;;;;;5050364;28;20037;-86
2021/11/26 02:53:43;;;;;;;21.40;7.07;;;5.30;89.50;;;;;;5050948;28;20041;-84
2021/11/26 02:56:08;;;;;;;20.35;7.22;;;5.30;89.50;;;;;;5050849;28;20037;-84
2021/11/26 02:58:34;;;;;;;15.93;6.60;;;5.30;89.50;;;;;;5055658;28;20032;-84
2021/11/26 03:01:01;;;;;;;18.55;6.72;;;5.30;89.60;;;;;;5049764;28;20029;-85
2021/11/26 03:03:27;;;;;;;20.52;6.60;;;5.30;89.60;;;;;;5049640;28;20064;-84
2021/11/26 03:06:01;;;;;;;23.45;7.55;;;5.30;89.60;;;;;;5043886;28;20400;-84
2021/11/26 03:08:27;;;;;;;18.73;7.22;;;5.30;89.60;;;;;;5048886;28;20976;-85
2021/11/26 03:10:53;;;;;;;18.15;6.93;;;5.30;89.70;;;;;;5049112;28;20545;-86
2021/11/26 03:13:19;;;;;;;23.42;7.88;;;5.30;89.60;;;;;;5049154;28;20029;-84
2021/11/26 03:15:44;;;;;;;23.65;7.60;;;5.30;89.60;;;;;;5051032;28;20057;-85
2021/11/26 03:18:16;;;;;;;18.88;6.70;;;5.30;89.60;;;;;;5049980;28;20112;-84
2021/11/26 03:20:41;;;;;;;21.73;6.82;;;5.30;89.70;;;;;;5057419;28;20033;-86
2021/11/26 03:23:07;;;;;;;24.98;7.00;;;5.20;89.60;;;;;;5049575;28;20037;-86
2021/11/26 03:25:33;;;;;;;20.52;6.82;;;5.20;89.70;;;;;;5058810;28;20044;-85
2021/11/26 03:27:58;;;;;;;21.83;6.47;;;5.20;89.70;;;;;;5052516;28;20519;-84
2021/11/26 03:30:24;;;;;;;26.05;6.45;;;5.20;89.60;;;;;;5050348;28;20075;-85
2021/11/26 03:32:51;;;;;;;25.60;7.30;;;5.20;89.60;;;;;;5048604;28;20038;-85
2021/11/26 03:35:19;;;;;;;18.10;6.93;;;5.20;89.50;;;;;;5046543;28;20041;-84
2021/11/26 03:37:45;;;;;;;18.20;6.80;;;5.20;89.40;;;;;;5046934;28;20036;-84
2021/11/26 03:40:13;;;;;;;16.23;6.55;;;5.20;89.40;;;;;;5047294;28;20029;-85
2021/11/26 03:42:39;;;;;;;18.73;6.40;;;5.20;89.10;;;;;;5049603;28;20095;-84
2021/11/26 03:45:07;;;;;;;14.90;5.78;;;5.20;89.00;;;;;;5047758;28;20041;-84
2021/11/26 03:47:33;;;;;;;20.63;6.80;;;5.20;88.80;;;;;;5049270;28;20055;-85
2021/11/26 03:49:58;;;;;;;20.77;6.65;;;5.20;88.70;;;;;;5049360;28;20057;-84
2021/11/26 03:52:24;;;;;;;21.02;5.70;;;5.10;88.60;;;;;;5048277;28;20486;-84
2021/11/26 03:54:50;;;;;;;23.42;6.22;;;5.20;88.30;;;;;;5048029;28;20029;-84
2021/11/26 03:57:16;;;;;;;18.42;6.30;;;5.10;88.20;;;;;;5047944;28;20052;-86
2021/11/26 03:59:41;;;;;;;17.58;6.38;;;5.10;88.20;;;;;;5051051;28;20064;-86
2021/11/26 04:02:08;;;;;;;20.33;6.28;;;5.10;88.20;;;;;;5044874;28;20064;-86
2021/11/26 04:04:34;;;;;;;21.23;6.63;;;5.10;88.00;;;;;;5048256;28;20045;-86
2021/11/26 04:06:59;;;;;;;17.40;5.93;;;5.00;87.90;;;;;;5049961;28;20075;-84
2021/11/26 04:09:25;;;;;;;20.33;6.32;;;5.00;88.10;;;;;;5045228;28;20629;-85
2021/11/26 04:11:51;;;;;;;21.33;6.07;;;5.00;88.00;;;;;;5047443;28;20419;-84
2021/11/26 04:14:17;;;;;;;14.45;5.15;;;5.00;87.90;;;;;;5042906;28;20025;-85
2021/11/26 04:16:43;;;;;;;19.88;5.90;;;5.00;87.70;;;;;;5043595;28;20067;-86
2021/11/26 04:19:08;;;;;;;17.05;5.63;;;4.90;87.60;;;;;;5047288;28;20033;-85
2021/11/26 04:21:34;;;;;;;20.23;6.45;;;5.00;87.70;;;;;;5049700;28;20028;-85
2021/11/26 04:24:02;;;;;;;15.90;5.50;;;5.00;87.50;;;;;;5049172;28;20056;-85
2021/11/26 04:26:28;;;;;;;18.08;6.22;;;5.00;87.30;;;;;;5049011;28;20041;-86
2021/11/26 04:28:54;;;;;;;17.50;5.50;;;4.90;87.30;;;;;;5048937;28;20091;-86
2021/11/26 04:31:20;;;;;;;14.20;5.88;;;4.90;87.20;;;;;;5045285;28;20044;-85
2021/11/26 04:33:47;;;;;;;15.85;5.07;;;4.90;87.20;;;;;;5047953;28;20116;-85
2021/11/26 04:36:14;;;;;;;17.70;6.55;;;4.90;87.10;;;;;;5046232;28;20053;-85
2021/11/26 04:38:40;;;;;;;19.63;6.43;;;4.90;87.00;;;;;;5044904;28;20051;-86
2021/11/26 04:41:06;;;;;;;18.65;5.45;;;4.80;86.80;;;;;;5046435;28;20037;-89
2021/11/26 04:43:32;;;;;;;20.20;6.07;;;4.80;86.80;;;;;;5046506;28;20071;-85
2021/11/26 04:45:57;;;;;;;21.77;5.82;;;4.80;86.70;;;;;;5046150;28;20044;-85
2021/11/26 04:48:24;;;;;;;14.80;5.38;;;4.80;86.70;;;;;;5046639;28;20041;-85
2021/11/26 04:50:52;;;;;;;18.10;5.80;;;4.70;86.60;;;;;;5046816;28;20040;-85
2021/11/26 04:53:19;;;;;;;15.27;5.40;;;4.80;86.30;;;;;;5046149;28;20078;-84
2021/11/26 04:55:46;;;;;;;20.48;5.40;;;4.70;86.10;;;;;;5061661;28;20074;-85
2021/11/26 04:58:12;;;;;;;19.02;5.43;;;4.70;85.80;;;;;;5054395;28;20476;-85
2021/11/26 05:00:38;;;;;;;15.57;5.53;;;4.70;85.60;;;;;;5047763;28;20035;-85
2021/11/26 05:03:05;;;;;;;16.50;5.20;;;4.70;85.70;;;;;;5043914;28;20033;-85
2021/11/26 05:05:31;;;;;;;18.25;5.55;;;4.70;85.70;;;;;;5050381;28;20071;-86
2021/11/26 05:07:58;;;;;;;14.93;4.90;;;4.60;85.60;;;;;;5050595;28;20036;-86
2021/11/26 05:10:25;;;;;;;14.15;4.63;;;4.60;85.60;;;;;;5049423;28;20468;-87
2021/11/26 05:12:55;;;;;;;15.43;4.85;;;4.60;84.80;;;;;;5052563;28;20033;-86
2021/11/26 05:15:26;;;;;;;16.20;4.68;;;4.60;84.50;;;;;;5046601;28;20116;-85
2021/11/26 05:18:02;;;;;;;16.17;5.00;;;4.60;84.60;;;;;;5047447;28;20110;-86
2021/11/26 05:20:30;;;;;;;16.90;5.13;;;4.50;84.60;;;;;;5049305;28;20025;-86
2021/11/26 05:22:56;;;;;;;16.58;5.97;;;4.60;84.30;;;;;;5048443;28;20357;-86
2021/11/26 05:25:24;;;;;;;14.90;4.90;;;4.50;84.40;;;;;;5044139;28;20045;-85
2021/11/26 05:27:51;;;;;;;14.55;5.50;;;4.50;84.20;;;;;;5038312;28;20152;-85
2021/11/26 05:30:17;;;;;;;14.05;5.03;;;4.50;84.30;;;;;;5039640;28;20411;-86
2021/11/26 05:32:43;;;;;;;19.35;5.32;;;4.40;84.50;;;;;;5042887;28;20037;-86
2021/11/26 05:35:11;;;;;;;19.35;5.47;;;4.30;84.60;;;;;;5045863;28;20044;-86
2021/11/26 05:37:38;;;;;;;17.17;5.97;;;4.30;84.70;;;;;;5042019;28;20111;-85
2021/11/26 05:40:06;;;;;;;14.18;4.85;;;4.20;84.70;;;;;;5045263;28;20036;-86
2021/11/26 05:42:32;;;;;;;15.52;5.30;;;4.20;84.70;;;;;;5047265;28;20021;-86
2021/11/26 05:44:58;;;;;;;17.55;6.45;;;4.20;84.70;;;;;;5060428;28;20049;-87
2021/11/26 05:47:24;;;;;;;15.00;5.40;;;4.20;84.80;;;;;;5068289;28;21796;-88
2021/11/26 05:49:50;;;;;;;25.63;6.82;;;4.10;84.80;;;;;;5065795;28;20013;-85
2021/11/26 05:52:15;;;;;;;13.73;5.57;;;4.10;84.90;;;;;;5043151;28;20061;-84
2021/11/26 05:54:41;;;;;;;15.93;5.00;;;4.20;84.70;;;;;;5042063;28;20112;-85
2021/11/26 05:57:07;;;;;;;15.07;6.03;;;4.20;84.70;;;;;;5035616;28;20033;-85
2021/11/26 05:59:32;;;;;;;15.70;5.72;;;4.20;84.90;;;;;;5043385;28;20045;-84
2021/11/26 06:01:58;;;;;;;13.73;5.75;;;4.10;85.10;;;;;;5041458;28;20041;-84
2021/11/26 06:04:26;;;;;;;16.08;5.53;;;4.10;85.20;;;;;;5039290;28;20041;-84
2021/11/26 06:06:51;;;;;;;16.20;5.30;;;4.10;85.20;;;;;;5044742;28;20045;-84
2021/11/26 06:09:17;;;;;;;17.13;5.65;;;4.10;85.20;;;;;;5040306;28;20493;-85
2021/11/26 06:11:43;;;;;;;16.02;5.55;;;4.10;85.40;;;;;;5039923;28;20060;-85
2021/11/26 06:14:08;;;;;;;16.13;4.88;;;4.10;85.40;;;;;;5034578;28;20480;-86
2021/11/26 06:16:34;;;;;;;14.60;5.13;;;4.10;85.50;;;;;;5033101;28;20538;-87
2021/11/26 06:19:00;;;;;;;17.77;4.65;;;4.10;85.60;;;;;;5046298;28;20047;-87
2021/11/26 06:21:26;;;;;;;14.82;5.93;;;4.10;85.60;;;;;;5051482;28;20145;-86
2021/11/26 06:23:51;;;;;;;18.38;5.53;;;4.10;85.60;;;;;;5047181;28;20025;-86
2021/11/26 06:26:17;;;;;;;17.92;5.03;;;4.10;85.50;;;;;;5059240;28;20037;-85
2021/11/26 06:28:43;;;;;;;14.50;4.25;;;4.10;85.50;;;;;;5063857;28;20495;-85
2021/11/26 06:31:08;;;;;;;15.23;5.20;;;4.10;85.40;;;;;;5052466;28;20029;-87
2021/11/26 06:33:34;;;;;;;10.82;4.65;;;4.10;85.50;;;;;;5053496;28;20025;-85
2021/11/26 06:36:01;;;;;;;14.82;4.80;;;4.10;85.60;;;;;;5050284;28;20080;-85
2021/11/26 06:38:27;;;;;;;13.77;4.82;;;4.10;85.50;;;;;;5048986;28;20041;-86
2021/11/26 06:40:52;;;;;;;13.38;4.95;;;4.10;85.20;;;;;;5045448;28;20045;-86
2021/11/26 06:43:18;;;;;;;17.08;5.07;;;4.10;85.10;;;;;;5046138;28;20037;-87
2021/11/26 06:45:43;;;;;;;13.80;5.40;;;4.10;85.20;;;;;;5050463;28;20111;-86
2021/11/26 06:48:10;;;;;;;16.55;5.43;;;4.20;85.10;;;;;;5048107;28;20041;-87
2021/11/26 06:50:37;;;;;;;17.67;5.22;;;4.10;85.10;;;;;;5052022;28;20056;-86
2021/11/26 06:53:03;;;;;;;15.90;5.00;;;4.20;84.90;;;;;;5050496;28;20036;-87
2021/11/26 06:55:29;;;;;;;15.82;4.68;;;4.10;84.90;;;;;;5055931;28;20048;-86
2021/11/26 06:57:55;;;;;;;13.75;4.50;;;4.20;84.60;;;;;;5059206;28;20024;-87
2021/11/26 07:00:22;;;;;;;14.13;4.60;;;4.20;84.40;;;;;;5043460;28;20470;-85
2021/11/26 07:02:49;;;;;;;17.77;5.32;;;4.20;84.50;;;;;;5049492;28;20075;-85
2021/11/26 07:05:15;;;;;;;15.63;4.40;;;4.20;84.40;;;;;;5046989;28;20040;-86
2021/11/26 07:07:41;;;;;;;12.93;4.65;;;4.20;84.50;;;;;;5054471;28;20442;-85
2021/11/26 07:10:08;;;;;;;16.02;5.00;;;4.20;84.60;;;;;;5062162;28;20043;-85
2021/11/26 07:12:35;;;;;;;13.15;5.60;;;4.20;84.50;;;;;;5049415;28;20041;-85
2021/11/26 07:15:02;;;;;;;13.68;4.75;;;4.20;84.50;;;;;;5048658;28;20090;-84
2021/11/26 07:17:28;;;;;;;17.77;4.97;;;4.20;84.60;;;;;;5047803;28;20029;-85
2021/11/26 07:19:53;;;;;;;16.02;5.30;;;4.30;84.70;;;;;;5050393;28;20102;-85
2021/11/26 07:22:19;;;;;;;14.35;5.28;;;4.20;84.80;;;;;;5046198;28;20526;-87
2021/11/26 07:24:45;;;;;;;13.48;5.15;;;4.20;84.80;;;;;;5050853;28;20068;-86
2021/11/26 07:27:11;;;;;;;13.13;4.93;;;4.20;84.70;;;;;;5048567;28;20062;-86
2021/11/26 07:29:37;;;;;;;14.82;5.10;;;4.20;84.80;;;;;;5044408;28;20095;-85
2021/11/26 07:32:03;;;;;;;16.10;5.30;;;4.20;84.90;;;;;;5065270;28;20029;-84
2021/11/26 07:34:29;;;;;;;18.08;5.50;;;4.20;85.00;;;;;;5043913;28;20041;-85
2021/11/26 07:36:55;;;;;;;17.77;6.25;;;4.30;85.00;;;;;;5048157;28;20540;-85
2021/11/26 07:39:23;;;;;;;16.52;5.50;;;4.20;85.10;;;;;;5043378;28;20067;-85
2021/11/26 07:41:48;;;;;;;16.58;5.28;;;4.20;85.20;;;;;;5054466;28;20368;-88
2021/11/26 07:44:14;;;;;;;15.40;4.93;;;4.20;85.20;;;;;;5048628;28;20065;-86
2021/11/26 07:46:41;;;;;;;15.18;5.57;;;4.20;85.20;;;;;;5047569;28;20033;-86
2021/11/26 07:49:06;;;;;;;17.65;5.35;;;4.30;85.20;;;;;;5047431;28;20162;-88
2021/11/26 07:51:32;;;;;;;22.33;5.78;;;4.30;85.20;;;;;;5048431;28;20111;-86
2021/11/26 07:53:58;;;;;;;17.20;5.13;;;4.30;85.00;;;;;;5049176;28;20041;-85
2021/11/26 07:56:24;;;;;;;14.23;5.88;;;4.40;85.00;;;;;;5055054;28;20553;-84
2021/11/26 07:58:50;;;;;;;16.30;5.28;;;4.40;84.80;;;;;;5067834;28;20104;-87
2021/11/26 08:01:16;;;;;;;15.13;5.18;;;4.40;84.60;;;;;;5046971;28;20053;-86
2021/11/26 08:03:42;;;;;;;22.65;6.05;;;4.40;84.70;;;;;;5052690;28;20112;-86
2021/11/26 08:06:08;;;;;;;13.00;4.93;;;4.40;84.80;;;;;;5070063;28;20021;-90
2021/11/26 08:08:34;;;;;;;15.93;5.45;;;4.40;84.70;;;;;;5067014;28;20049;-89
2021/11/26 08:11:01;;;;;;;16.33;5.40;;;4.50;84.80;;;;;;5065753;28;20105;-86
2021/11/26 08:13:27;;;;;;;13.32;5.00;;;4.50;84.70;;;;;;5046575;28;20873;-84
2021/11/26 08:15:52;;;;;;;16.98;5.10;;;4.50;84.40;;;;;;5051447;28;20033;-85
2021/11/26 08:18:18;;;;;;;15.48;7.18;;;4.50;84.10;;;;;;5042637;28;20040;-85
2021/11/26 08:20:44;;;;;;;17.75;6.15;;;4.60;84.10;;;;;;5047363;28;20037;-85
2021/11/26 08:23:10;;;;;;;16.75;5.68;;;4.60;84.10;;;;;;5043358;28;20385;-84
2021/11/26 08:25:37;;;;;;;13.10;5.10;;;4.60;84.10;;;;;;5046805;28;20044;-82
2021/11/26 08:28:04;;;;;;;14.80;5.07;;;4.60;84.10;;;;;;5047825;28;20040;-82
2021/11/26 08:30:30;;;;;;;15.35;4.93;;;4.60;84.20;;;;;;5046193;28;20094;-84
2021/11/26 08:32:56;;;;;;;12.82;5.72;;;4.70;84.20;;;;;;5047383;28;20033;-82
2021/11/26 08:35:24;;;;;;;15.65;5.90;;;4.70;84.10;;;;;;5040835;28;20388;-84
2021/11/26 08:37:50;;;;;;;18.00;5.63;;;4.70;84.00;;;;;;5048300;28;20029;-84
2021/11/26 08:40:17;;;;;;;15.70;6.30;;;4.80;83.70;;;;;;5043625;28;20090;-82
2021/11/26 08:42:43;;;;;;;13.77;4.90;;;4.80;83.70;;;;;;5048441;28;20025;-80
2021/11/26 08:45:11;;;;;;;16.58;5.93;;;4.90;83.60;;;;;;5047000;28;20075;-81
2021/11/26 08:47:38;;;;;;;13.82;5.13;;;4.90;83.50;;;;;;5049667;28;20468;-81
2021/11/26 08:50:05;;;;;;;18.45;6.75;;;4.90;83.50;;;;;;5048327;28;20041;-80
2021/11/26 08:52:32;;;;;;;13.23;4.63;;;5.00;83.50;;;;;;5037848;28;20033;-81
2021/11/26 08:54:58;;;;;;;15.73;5.65;;;5.00;83.50;;;;;;5042537;28;20543;-82
2021/11/26 08:57:28;;;;;;;15.85;5.10;;;5.00;83.70;;;;;;5043338;28;20144;-82
2021/11/26 08:59:54;;;;;;;18.35;4.88;;;5.00;83.90;;;;;;5044865;28;20439;-81
2021/11/26 09:02:20;;;;;;;17.65;5.57;;;5.10;84.20;;;;;;5042589;28;20042;-81
2021/11/26 09:04:45;;;;;;;14.00;5.57;;;5.00;84.20;;;;;;5042952;28;20111;-80
2021/11/26 09:07:11;;;;;;;18.08;6.15;;;5.10;84.50;;;;;;5037701;28;20041;-81
2021/11/26 09:09:37;;;;;;;10.77;4.55;;;5.00;84.70;;;;;;5037796;28;20037;-80
2021/11/26 09:12:03;;;;;;;11.80;5.13;;;5.10;84.90;;;;;;5042901;28;20051;-80
2021/11/26 09:14:29;;;;;;;16.48;5.78;;;5.10;85.00;;;;;;5042570;28;20107;-80
2021/11/26 09:16:55;;;;;;;17.15;6.18;;;5.10;85.10;;;;;;5042765;28;20073;-80
2021/11/26 09:19:21;;;;;;;16.70;6.05;;;5.10;85.30;;;;;;5045753;28;20075;-80
2021/11/26 09:21:46;;;;;;;17.92;6.32;;;5.10;85.50;;;;;;5050016;28;20045;-80
2021/11/26 09:24:12;;;;;;;17.75;6.45;;;5.10;85.70;;;;;;5045804;28;20490;-80
2021/11/26 09:26:38;;;;;;;14.60;6.05;;;5.10;86.00;;;;;;5041320;28;20060;-79
2021/11/26 09:29:04;;;;;;;16.38;5.78;;;5.10;86.20;;;;;;5040116;28;20950;-80
2021/11/26 09:31:30;;;;;;;11.60;5.88;;;5.10;86.30;;;;;;5040464;28;20033;-79
2021/11/26 09:33:56;;;;;;;15.82;5.60;;;5.10;86.40;;;;;;5042395;28;20029;-79
2021/11/26 09:36:24;;;;;;;17.60;6.35;;;5.10;86.60;;;;;;5031525;28;20041;-81
2021/11/26 09:38:50;;;;;;;17.52;6.38;;;5.10;86.60;;;;;;5038191;28;20391;-80
2021/11/26 09:41:16;;;;;;;14.88;6.55;;;5.10;86.90;;;;;;5038479;28;20076;-80
2021/11/26 09:43:44;;;;;;;16.35;6.53;;;5.10;87.00;;;;;;5039396;28;20090;-79
2021/11/26 09:46:11;;;;;;;13.73;6.10;;;5.10;86.90;;;;;;5039921;28;20066;-78
2021/11/26 09:48:37;;;;;;;15.30;6.13;;;5.10;87.00;;;;;;5041788;28;20044;-77
2021/11/26 09:51:05;;;;;;;15.10;5.25;;;5.10;87.20;;;;;;5042252;28;20094;-77
2021/11/26 09:53:31;;;;;;;12.07;4.95;;;5.10;87.40;;;;;;5042422;28;20033;-79
2021/11/26 09:55:59;;;;;;;16.95;6.22;;;5.10;87.40;;;;;;5043306;28;20037;-79
2021/11/26 09:58:28;;;;;;;15.45;6.25;;;5.10;87.50;;;;;;5046932;28;20029;-79
2021/11/26 10:00:56;;;;;;;9.77;5.25;;;5.20;87.60;;;;;;5040980;28;20029;-80
2021/11/26 10:03:23;;;;;;;14.23;5.95;;;5.10;87.70;;;;;;5042727;28;20045;-79
2021/11/26 10:05:49;;;;;;;16.90;5.90;;;5.20;87.60;;;;;;5045482;28;20099;-79
2021/11/26 10:08:24;;;;;;;13.43;5.85;;;5.20;87.70;;;;;;5045529;28;20032;-80
2021/11/26 10:11:01;;;;;;;16.13;6.60;;;5.20;87.70;;;;;;5044282;28;20049;-79
2021/11/26 10:13:31;;;;;;;15.50;5.70;;;5.20;87.60;;;;;;5044071;28;20032;-79
2021/11/26 10:16:08;;;;;;;13.88;6.35;;;5.20;87.80;;;;;;5046944;28;20127;-79
2021/11/26 10:18:35;;;;;;;14.60;5.78;;;5.30;88.10;;;;;;5040156;28;20079;-80
2021/11/26 10:21:09;;;;;;;15.77;6.00;;;5.20;88.00;;;;;;5044345;28;20033;-80
2021/11/26 10:23:38;;;;;;;15.90;5.35;;;5.20;88.00;;;;;;5046317;28;20396;-80
2021/11/26 10:26:31;;;;;;;14.60;6.20;;;5.20;87.80;;;;;;5044032;28;21456;-79
2021/11/26 10:29:01;;;;;;;13.85;5.90;;;5.20;87.80;;;;;;5047418;28;20466;-78
2021/11/26 10:31:31;;;;;;;11.65;5.20;;;5.20;87.90;;;;;;5047768;28;20044;-80
2021/11/26 10:34:00;;;;;;;14.38;5.88;;;5.30;88.10;;;;;;5044161;28;20075;-79
2021/11/26 10:36:28;;;;;;;14.07;5.38;;;5.30;88.10;;;;;;5045458;28;20132;-80
2021/11/26 10:38:54;;;;;;;13.50;5.43;;;5.30;87.90;;;;;;5050932;28;20033;-79
2021/11/26 10:41:28;;;;;;;16.52;6.07;;;5.30;87.80;;;;;;5048791;28;20048;-79
2021/11/26 10:44:02;;;;;;;16.58;5.40;;;5.30;87.90;;;;;;5047463;28;20041;-78
2021/11/26 10:59:50;;;;;;;14.95;5.03;;;5.70;87.20;;;;;;5046519;28;20033;-80
2021/11/26 11:02:28;;;;;;;16.40;5.28;;;5.70;87.00;;;;;;5047255;28;20032;-81
2021/11/26 11:04:54;;;;;;;13.77;5.25;;;5.70;87.20;;;;;;5046905;28;20051;-78
2021/11/26 11:07:20;;;;;;;13.02;5.05;;;5.70;87.30;;;;;;5042699;28;20076;-78
2021/11/26 11:09:48;;;;;;;13.95;4.63;;;5.70;87.40;;;;;;5053205;28;20048;-77
2021/11/26 11:12:14;;;;;;;13.18;5.18;;;5.70;87.20;;;;;;5048419;28;20052;-79
2021/11/26 11:14:52;;;;;;;13.55;5.50;;;5.70;87.40;;;;;;5054144;28;20039;-79
2021/11/26 11:17:24;;;;;;;16.45;5.50;;;5.60;87.60;;;;;;5045316;28;20160;-79
2021/11/26 11:19:52;;;;;;;14.63;5.95;;;5.60;87.70;;;;;;5049201;28;20471;-79
2021/11/26 11:22:18;;;;;;;19.25;5.47;;;5.60;87.90;;;;;;5046572;28;20049;-80
2021/11/26 11:24:44;;;;;;;15.95;5.28;;;5.60;88.00;;;;;;5047884;28;20049;-79
2021/11/26 11:27:10;;;;;;;16.67;5.43;;;5.60;88.20;;;;;;5042285;28;20116;-80
2021/11/26 11:29:36;;;;;;;19.23;5.88;;;5.70;88.40;;;;;;5038710;28;20151;-80
2021/11/26 11:32:02;;;;;;;17.90;5.53;;;5.70;87.90;;;;;;5042912;28;20032;-80
2021/11/26 11:34:29;;;;;;;14.32;6.38;;;5.80;88.00;;;;;;5038756;28;20524;-79
2021/11/26 11:37:00;;;;;;;15.70;6.35;;;5.70;88.10;;;;;;5043745;28;20388;-79
2021/11/26 11:39:26;;;;;;;12.20;5.03;;;5.80;88.10;;;;;;5041356;28;20025;-80
2021/11/26 11:41:58;;;;;;;13.15;5.78;;;5.80;88.20;;;;;;5038952;28;20042;-80
2021/11/26 11:44:24;;;;;;;12.77;5.72;;;5.80;87.90;;;;;;5040938;28;20071;-79
2021/11/26 11:46:50;;;;;;;15.77;6.10;;;5.80;88.00;;;;;;5037638;28;20166;-78
2021/11/26 11:49:42;;;;;;;15.60;5.72;;;5.90;87.80;;;;;;5033675;28;20088;-79
2021/11/26 11:52:11;;;;;;;12.93;5.65;;;6.00;87.70;;;;;;5035393;28;20037;-79
2021/11/26 11:54:45;;;;;;;15.93;5.90;;;5.90;87.50;;;;;;5042582;28;20061;-79
2021/11/26 11:57:26;;;;;;;14.03;6.33;;;5.90;87.70;;;;;;5036724;28;20065;-78
2021/11/26 11:59:53;;;;;;;13.57;6.15;;;6.00;87.80;;;;;;5040061;28;20047;-81
2021/11/26 12:02:27;;;;;;;11.50;5.50;;;5.90;87.80;;;;;;5035373;28;20319;-79
2021/11/26 12:04:55;;;;;;;13.15;5.68;;;6.00;87.80;;;;;;5037913;28;20125;-81
2021/11/26 12:07:27;;;;;;;13.02;6.00;;;6.00;87.80;;;;;;5038807;28;21963;-80
2021/11/26 12:10:12;;;;;;;13.02;6.40;;;5.90;87.90;;;;;;5038500;28;20049;-81
2021/11/26 12:12:51;;;;;;;13.20;6.53;;;6.00;88.00;;;;;;5040117;28;20412;-81
2021/11/26 12:15:28;;;;;;;13.25;5.50;;;6.00;87.90;;;;;;5036723;28;20045;-79
2021/11/26 12:18:07;;;;;;;10.63;5.32;;;5.90;87.90;;;;;;5039263;28;20472;-80
2021/11/26 12:20:36;;;;;;;13.38;5.40;;;6.00;88.40;;;;;;5040223;28;20090;-78
2021/11/26 12:23:20;;;;;;;14.25;5.30;;;6.00;88.40;;;;;;5038640;28;20464;-79
2021/11/26 12:26:22;;;;;;;16.83;6.35;;;5.90;88.60;;;;;;5040671;28;20052;-78
2021/11/26 12:28:53;;;;;;;11.88;5.70;;;5.90;88.90;;;;;;5040818;28;20476;-78
2021/11/26 12:31:29;;;;;;;13.43;5.88;;;6.00;89.10;;;;;;5036727;28;20029;-80
2021/11/26 12:34:04;;;;;;;13.93;6.15;;;5.90;89.30;;;;;;5039097;28;20455;-81
2021/11/26 12:36:52;;;;;;;16.27;7.07;;;5.90;89.30;;;;;;5035115;28;20518;-81
2021/11/26 12:39:24;;;;;;;16.20;6.60;;;6.10;89.60;;;;;;5031611;28;20034;-79
2021/11/26 12:41:54;;;;;;;12.40;6.35;;;6.20;89.50;;;;;;5030864;28;20463;-81
2021/11/26 12:44:23;;;;;;;12.75;6.07;;;6.30;89.30;;;;;;5035031;28;20057;-79
2021/11/26 12:46:57;;;;;;;13.63;5.38;;;6.40;89.10;;;;;;5036812;28;20034;-79
2021/11/26 12:52:10;;;;;;;12.80;5.25;;;6.30;88.60;;;;;;5036954;28;20053;-80
2021/11/26 12:54:44;;;;;;;14.30;6.03;;;6.20;88.70;;;;;;5044559;28;20674;-80
2021/11/26 12:57:21;;;;;;;11.48;5.85;;;6.20;88.90;;;;;;5037339;28;20981;-76
2021/11/26 12:59:51;;;;;;;9.90;5.57;;;6.20;89.00;;;;;;5043458;28;20044;-79
2021/11/26 13:02:33;;;;;;;14.52;5.78;;;6.20;89.10;;;;;;5044802;28;20053;-78
2021/11/26 13:05:02;;;;;;;12.63;5.93;;;6.20;89.40;;;;;;5045495;28;20069;-78
2021/11/26 13:07:28;;;;;;;14.13;5.40;;;6.10;89.60;;;;;;5044575;28;20056;-79